sensor_id;sensor_type;location;lat;lon;timestamp;temperature;humidity
61412;DHT22;47278;49.732;7.690;2022-11-30T00:03:57;5.00;99.90
61412;DHT22;47278;49.732;7.690;2022-11-30T00:06:23;5.00;99.90
61412;DHT22;47278;49.732;7.690;2022-11-30T00:08:55;5.10;99.90
61412;DHT22;47278;49.732;7.690;2022-11-30T00:11:22;4.90;99.90
61412;DHT22;47278;49.732;7.690;2022-11-30T00:13:48;4.90;99.90
61412;DHT22;47278;49.732;7.690;2022-11-30T00:16:14;5.00;99.90
61412;DHT22;47278;49.732;7.690;2022-11-30T00:18:39;5.00;99.90
61412;DHT22;47278;49.732;7.690;2022-11-30T00:21:06;5.00;99.90
61412;DHT22;47278;49.732;7.690;2022-11-30T00:23:35;5.00;99.90
61412;DHT22;47278;49.732;7.690;2022-11-30T00:26:02;5.20;99.90
61412;DHT22;47278;49.732;7.690;2022-11-30T00:28:28;5.00;99.90
61412;DHT22;47278;49.732;7.690;2022-11-30T00:30:58;5.00;99.90
61412;DHT22;47278;49.732;7.690;2022-11-30T00:33:24;5.00;99.90
61412;DHT22;47278;49.732;7.690;2022-11-30T00:36:00;4.90;99.90
61412;DHT22;47278;49.732;7.690;2022-11-30T00:38:25;4.90;99.90
61412;DHT22;47278;49.732;7.690;2022-11-30T00:40:51;5.00;99.90
61412;DHT22;47278;49.732;7.690;2022-11-30T00:43:17;5.00;99.90
61412;DHT22;47278;49.732;7.690;2022-11-30T00:45:42;4.90;99.90
61412;DHT22;47278;49.732;7.690;2022-11-30T00:48:08;4.90;99.90
61412;DHT22;47278;49.732;7.690;2022-11-30T00:50:33;5.00;99.90
61412;DHT22;47278;49.732;7.690;2022-11-30T00:52:59;4.90;99.90
61412;DHT22;47278;49.732;7.690;2022-11-30T00:55:24;4.90;99.90
61412;DHT22;47278;49.732;7.690;2022-11-30T00:57:51;4.80;99.90
61412;DHT22;47278;49.732;7.690;2022-11-30T01:00:17;4.80;99.90
61412;DHT22;47278;49.732;7.690;2022-11-30T01:02:42;4.80;99.90
61412;DHT22;47278;49.732;7.690;2022-11-30T01:05:09;4.90;99.90
61412;DHT22;47278;49.732;7.690;2022-11-30T01:07:35;4.90;99.90
61412;DHT22;47278;49.732;7.690;2022-11-30T01:10:01;4.90;99.90
61412;DHT22;47278;49.732;7.690;2022-11-30T01:12:26;4.90;99.90
61412;DHT22;47278;49.732;7.690;2022-11-30T01:14:52;4.80;99.90
61412;DHT22;47278;49.732;7.690;2022-11-30T01:17:17;4.80;99.90
61412;DHT22;47278;49.732;7.690;2022-11-30T01:19:43;4.80;99.90
61412;DHT22;47278;49.732;7.690;2022-11-30T01:22:08;4.80;99.90
61412;DHT22;47278;49.732;7.690;2022-11-30T01:24:34;4.80;99.90
61412;DHT22;47278;49.732;7.690;2022-11-30T01:26:59;4.90;99.90
61412;DHT22;47278;49.732;7.690;2022-11-30T01:29:25;4.80;99.90
61412;DHT22;47278;49.732;7.690;2022-11-30T01:31:50;4.80;99.90
61412;DHT22;47278;49.732;7.690;2022-11-30T01:34:16;4.90;99.90
61412;DHT22;47278;49.732;7.690;2022-11-30T01:36:42;4.80;99.90
61412;DHT22;47278;49.732;7.690;2022-11-30T01:39:08;4.80;99.90
61412;DHT22;47278;49.732;7.690;2022-11-30T01:41:34;4.80;99.90
61412;DHT22;47278;49.732;7.690;2022-11-30T01:46:37;4.80;99.90
61412;DHT22;47278;49.732;7.690;2022-11-30T01:51:32;4.90;99.90
61412;DHT22;47278;49.732;7.690;2022-11-30T01:53:58;4.90;99.90
61412;DHT22;47278;49.732;7.690;2022-11-30T01:56:24;4.90;99.90
61412;DHT22;47278;49.732;7.690;2022-11-30T01:58:50;4.90;99.90
61412;DHT22;47278;49.732;7.690;2022-11-30T02:01:15;4.90;99.90
61412;DHT22;47278;49.732;7.690;2022-11-30T02:03:43;4.90;99.90
61412;DHT22;47278;49.732;7.690;2022-11-30T02:06:10;4.90;99.90
61412;DHT22;47278;49.732;7.690;2022-11-30T02:08:36;4.90;99.90
61412;DHT22;47278;49.732;7.690;2022-11-30T02:11:03;5.10;99.90
61412;DHT22;47278;49.732;7.690;2022-11-30T02:13:32;4.90;99.90
61412;DHT22;47278;49.732;7.690;2022-11-30T02:16:10;5.00;99.90
61412;DHT22;47278;49.732;7.690;2022-11-30T02:21:10;5.00;99.90
61412;DHT22;47278;49.732;7.690;2022-11-30T02:28:50;5.00;99.90
61412;DHT22;47278;49.732;7.690;2022-11-30T02:31:26;4.90;99.90
61412;DHT22;47278;49.732;7.690;2022-11-30T02:33:54;5.00;99.90
61412;DHT22;47278;49.732;7.690;2022-11-30T02:36:21;5.00;99.90
61412;DHT22;47278;49.732;7.690;2022-11-30T02:38:46;5.00;99.90
61412;DHT22;47278;49.732;7.690;2022-11-30T02:41:12;5.00;99.90
61412;DHT22;47278;49.732;7.690;2022-11-30T02:43:37;5.00;99.90
61412;DHT22;47278;49.732;7.690;2022-11-30T02:51:20;5.00;99.90
61412;DHT22;47278;49.732;7.690;2022-11-30T02:53:47;4.90;99.90
61412;DHT22;47278;49.732;7.690;2022-11-30T02:56:13;4.90;99.90
61412;DHT22;47278;49.732;7.690;2022-11-30T02:58:38;4.90;99.90
61412;DHT22;47278;49.732;7.690;2022-11-30T03:01:04;7.10;99.90
61412;DHT22;47278;49.732;7.690;2022-11-30T03:03:29;4.90;99.90
61412;DHT22;47278;49.732;7.690;2022-11-30T03:05:55;4.90;99.90
61412;DHT22;47278;49.732;7.690;2022-11-30T03:08:21;4.90;99.90
61412;DHT22;47278;49.732;7.690;2022-11-30T03:10:46;4.90;99.90
61412;DHT22;47278;49.732;7.690;2022-11-30T03:13:12;4.90;99.90
61412;DHT22;47278;49.732;7.690;2022-11-30T03:15:37;5.00;99.90
61412;DHT22;47278;49.732;7.690;2022-11-30T03:18:03;4.90;99.90
61412;DHT22;47278;49.732;7.690;2022-11-30T03:20:29;4.90;99.90
61412;DHT22;47278;49.732;7.690;2022-11-30T03:22:58;5.00;99.90
61412;DHT22;47278;49.732;7.690;2022-11-30T03:25:24;5.00;99.90
61412;DHT22;47278;49.732;7.690;2022-11-30T03:27:50;5.00;99.90
61412;DHT22;47278;49.732;7.690;2022-11-30T03:30:16;4.90;99.90
61412;DHT22;47278;49.732;7.690;2022-11-30T03:32:41;5.00;99.90
61412;DHT22;47278;49.732;7.690;2022-11-30T03:35:07;5.00;99.90
61412;DHT22;47278;49.732;7.690;2022-11-30T03:37:33;5.00;99.90
61412;DHT22;47278;49.732;7.690;2022-11-30T03:39:58;5.00;99.90
61412;DHT22;47278;49.732;7.690;2022-11-30T03:42:24;5.00;99.90
61412;DHT22;47278;49.732;7.690;2022-11-30T03:44:49;4.90;99.90
61412;DHT22;47278;49.732;7.690;2022-11-30T03:47:15;5.00;99.90
61412;DHT22;47278;49.732;7.690;2022-11-30T03:49:40;5.00;99.90
61412;DHT22;47278;49.732;7.690;2022-11-30T03:52:06;5.30;99.90
61412;DHT22;47278;49.732;7.690;2022-11-30T03:54:31;5.00;99.90
61412;DHT22;47278;49.732;7.690;2022-11-30T03:56:57;5.00;99.90
61412;DHT22;47278;49.732;7.690;2022-11-30T03:59:22;5.10;99.90
61412;DHT22;47278;49.732;7.690;2022-11-30T04:01:48;5.00;99.90
61412;DHT22;47278;49.732;7.690;2022-11-30T04:04:13;5.00;99.90
61412;DHT22;47278;49.732;7.690;2022-11-30T04:06:39;5.00;99.90
61412;DHT22;47278;49.732;7.690;2022-11-30T04:09:05;5.00;99.90
61412;DHT22;47278;49.732;7.690;2022-11-30T04:11:30;5.00;99.90
61412;DHT22;47278;49.732;7.690;2022-11-30T04:13:56;5.00;99.90
61412;DHT22;47278;49.732;7.690;2022-11-30T04:16:21;5.10;99.90
61412;DHT22;47278;49.732;7.690;2022-11-30T04:18:47;5.10;99.90
61412;DHT22;47278;49.732;7.690;2022-11-30T04:21:13;5.00;99.90
61412;DHT22;47278;49.732;7.690;2022-11-30T04:23:39;5.10;99.90
61412;DHT22;47278;49.732;7.690;2022-11-30T04:26:05;5.10;99.90
61412;DHT22;47278;49.732;7.690;2022-11-30T04:28:31;5.10;99.90
61412;DHT22;47278;49.732;7.690;2022-11-30T04:30:57;5.10;99.90
61412;DHT22;47278;49.732;7.690;2022-11-30T04:33:24;5.10;99.90
61412;DHT22;47278;49.732;7.690;2022-11-30T04:35:52;5.10;99.90
61412;DHT22;47278;49.732;7.690;2022-11-30T04:38:18;5.10;99.90
61412;DHT22;47278;49.732;7.690;2022-11-30T04:40:44;5.10;99.90
61412;DHT22;47278;49.732;7.690;2022-11-30T04:43:10;5.20;99.90
61412;DHT22;47278;49.732;7.690;2022-11-30T04:45:36;5.20;99.90
61412;DHT22;47278;49.732;7.690;2022-11-30T04:48:02;5.20;99.90
61412;DHT22;47278;49.732;7.690;2022-11-30T04:50:28;5.20;99.90
61412;DHT22;47278;49.732;7.690;2022-11-30T04:52:53;5.20;99.90
61412;DHT22;47278;49.732;7.690;2022-11-30T04:55:19;5.20;99.90
61412;DHT22;47278;49.732;7.690;2022-11-30T04:57:45;5.20;99.90
61412;DHT22;47278;49.732;7.690;2022-11-30T05:00:11;5.20;99.90
61412;DHT22;47278;49.732;7.690;2022-11-30T05:02:37;5.20;99.90
61412;DHT22;47278;49.732;7.690;2022-11-30T05:05:03;5.20;99.90
61412;DHT22;47278;49.732;7.690;2022-11-30T05:07:29;5.20;99.90
61412;DHT22;47278;49.732;7.690;2022-11-30T05:09:54;5.10;99.90
61412;DHT22;47278;49.732;7.690;2022-11-30T05:12:20;5.10;99.90
61412;DHT22;47278;49.732;7.690;2022-11-30T05:14:45;5.10;99.90
61412;DHT22;47278;49.732;7.690;2022-11-30T05:17:11;5.10;99.90
61412;DHT22;47278;49.732;7.690;2022-11-30T05:19:36;5.10;99.90
61412;DHT22;47278;49.732;7.690;2022-11-30T05:22:02;5.20;99.90
61412;DHT22;47278;49.732;7.690;2022-11-30T05:24:27;5.10;99.90
61412;DHT22;47278;49.732;7.690;2022-11-30T05:26:53;5.20;99.90
61412;DHT22;47278;49.732;7.690;2022-11-30T05:29:18;5.20;99.90
61412;DHT22;47278;49.732;7.690;2022-11-30T05:31:44;5.20;99.90
61412;DHT22;47278;49.732;7.690;2022-11-30T05:34:11;5.20;99.90
61412;DHT22;47278;49.732;7.690;2022-11-30T05:36:36;5.20;99.90
61412;DHT22;47278;49.732;7.690;2022-11-30T05:39:02;5.20;99.90
61412;DHT22;47278;49.732;7.690;2022-11-30T05:41:28;5.20;99.90
61412;DHT22;47278;49.732;7.690;2022-11-30T05:43:53;5.70;99.90
61412;DHT22;47278;49.732;7.690;2022-11-30T05:46:19;5.20;99.90
61412;DHT22;47278;49.732;7.690;2022-11-30T05:48:44;5.20;99.90
61412;DHT22;47278;49.732;7.690;2022-11-30T05:51:14;5.20;99.90
61412;DHT22;47278;49.732;7.690;2022-11-30T05:53:40;5.20;99.90
61412;DHT22;47278;49.732;7.690;2022-11-30T05:56:07;5.20;99.90
61412;DHT22;47278;49.732;7.690;2022-11-30T05:58:33;5.20;99.90
61412;DHT22;47278;49.732;7.690;2022-11-30T06:01:06;5.90;99.90
61412;DHT22;47278;49.732;7.690;2022-11-30T06:03:32;5.20;99.90
61412;DHT22;47278;49.732;7.690;2022-11-30T06:05:58;5.10;99.90
61412;DHT22;47278;49.732;7.690;2022-11-30T06:08:25;5.10;99.90
61412;DHT22;47278;49.732;7.690;2022-11-30T06:10:51;5.20;99.90
61412;DHT22;47278;49.732;7.690;2022-11-30T06:13:16;5.20;99.90
61412;DHT22;47278;49.732;7.690;2022-11-30T06:15:42;5.20;99.90
61412;DHT22;47278;49.732;7.690;2022-11-30T06:18:08;5.20;99.90
61412;DHT22;47278;49.732;7.690;2022-11-30T06:20:35;5.20;99.90
61412;DHT22;47278;49.732;7.690;2022-11-30T06:23:01;5.30;99.90
61412;DHT22;47278;49.732;7.690;2022-11-30T06:25:26;5.30;99.90
61412;DHT22;47278;49.732;7.690;2022-11-30T06:27:52;5.30;99.90
61412;DHT22;47278;49.732;7.690;2022-11-30T06:30:18;5.30;99.90
61412;DHT22;47278;49.732;7.690;2022-11-30T06:32:46;5.30;99.90
61412;DHT22;47278;49.732;7.690;2022-11-30T06:35:12;5.30;99.90
61412;DHT22;47278;49.732;7.690;2022-11-30T06:37:38;5.30;99.90
61412;DHT22;47278;49.732;7.690;2022-11-30T06:40:04;5.30;99.90
61412;DHT22;47278;49.732;7.690;2022-11-30T06:42:30;5.20;99.90
61412;DHT22;47278;49.732;7.690;2022-11-30T06:44:56;5.30;99.90
61412;DHT22;47278;49.732;7.690;2022-11-30T06:47:22;5.30;99.90
61412;DHT22;47278;49.732;7.690;2022-11-30T06:49:47;5.30;99.90
61412;DHT22;47278;49.732;7.690;2022-11-30T06:52:13;5.30;99.90
61412;DHT22;47278;49.732;7.690;2022-11-30T06:54:38;5.30;99.90
61412;DHT22;47278;49.732;7.690;2022-11-30T06:57:04;5.30;99.90
61412;DHT22;47278;49.732;7.690;2022-11-30T06:59:29;5.30;99.90
61412;DHT22;47278;49.732;7.690;2022-11-30T07:01:55;5.30;99.90
61412;DHT22;47278;49.732;7.690;2022-11-30T07:04:20;5.30;99.90
61412;DHT22;47278;49.732;7.690;2022-11-30T07:06:46;5.30;99.90
61412;DHT22;47278;49.732;7.690;2022-11-30T07:09:11;5.30;99.90
61412;DHT22;47278;49.732;7.690;2022-11-30T07:11:38;5.30;99.90
61412;DHT22;47278;49.732;7.690;2022-11-30T07:14:03;5.30;99.90
61412;DHT22;47278;49.732;7.690;2022-11-30T07:16:29;5.30;99.90
61412;DHT22;47278;49.732;7.690;2022-11-30T07:18:54;5.60;99.90
61412;DHT22;47278;49.732;7.690;2022-11-30T07:21:20;5.40;99.90
61412;DHT22;47278;49.732;7.690;2022-11-30T07:23:45;5.40;99.90
61412;DHT22;47278;49.732;7.690;2022-11-30T07:26:30;5.40;99.90
61412;DHT22;47278;49.732;7.690;2022-11-30T07:28:55;5.50;99.90
61412;DHT22;47278;49.732;7.690;2022-11-30T07:33:48;5.60;99.90
61412;DHT22;47278;49.732;7.690;2022-11-30T07:36:14;5.60;99.90
61412;DHT22;47278;49.732;7.690;2022-11-30T07:38:40;5.50;99.90
61412;DHT22;47278;49.732;7.690;2022-11-30T07:41:06;5.60;99.90
61412;DHT22;47278;49.732;7.690;2022-11-30T07:43:31;5.60;99.90
61412;DHT22;47278;49.732;7.690;2022-11-30T07:45:57;5.70;99.90
61412;DHT22;47278;49.732;7.690;2022-11-30T07:48:23;5.70;99.90
61412;DHT22;47278;49.732;7.690;2022-11-30T07:50:48;5.70;99.90
61412;DHT22;47278;49.732;7.690;2022-11-30T07:53:15;5.70;99.90
61412;DHT22;47278;49.732;7.690;2022-11-30T07:55:41;5.80;99.90
61412;DHT22;47278;49.732;7.690;2022-11-30T07:58:07;5.80;99.90
61412;DHT22;47278;49.732;7.690;2022-11-30T08:00:34;5.90;99.90
61412;DHT22;47278;49.732;7.690;2022-11-30T08:03:00;5.90;99.90
61412;DHT22;47278;49.732;7.690;2022-11-30T08:05:26;5.90;99.90
61412;DHT22;47278;49.732;7.690;2022-11-30T08:07:52;5.90;99.90
61412;DHT22;47278;49.732;7.690;2022-11-30T08:10:18;5.90;99.90
61412;DHT22;47278;49.732;7.690;2022-11-30T08:12:44;5.90;99.90
61412;DHT22;47278;49.732;7.690;2022-11-30T08:15:09;6.40;99.90
61412;DHT22;47278;49.732;7.690;2022-11-30T08:17:35;6.00;99.90
61412;DHT22;47278;49.732;7.690;2022-11-30T08:20:00;6.10;99.90
61412;DHT22;47278;49.732;7.690;2022-11-30T08:22:26;6.10;99.90
61412;DHT22;47278;49.732;7.690;2022-11-30T08:24:51;6.10;99.90
61412;DHT22;47278;49.732;7.690;2022-11-30T08:27:17;6.10;99.90
61412;DHT22;47278;49.732;7.690;2022-11-30T08:29:42;6.20;99.90
61412;DHT22;47278;49.732;7.690;2022-11-30T08:32:08;6.20;99.90
61412;DHT22;47278;49.732;7.690;2022-11-30T08:34:33;6.30;99.90
61412;DHT22;47278;49.732;7.690;2022-11-30T08:36:59;6.30;99.90
61412;DHT22;47278;49.732;7.690;2022-11-30T08:39:24;6.30;99.90
61412;DHT22;47278;49.732;7.690;2022-11-30T08:41:52;6.30;99.90
61412;DHT22;47278;49.732;7.690;2022-11-30T08:44:18;6.30;99.90
61412;DHT22;47278;49.732;7.690;2022-11-30T08:46:43;6.30;99.90
61412;DHT22;47278;49.732;7.690;2022-11-30T08:49:09;6.40;99.90
61412;DHT22;47278;49.732;7.690;2022-11-30T08:51:34;6.60;99.90
61412;DHT22;47278;49.732;7.690;2022-11-30T08:54:00;6.70;99.90
61412;DHT22;47278;49.732;7.690;2022-11-30T08:56:26;6.70;99.90
61412;DHT22;47278;49.732;7.690;2022-11-30T08:58:53;6.90;99.90
61412;DHT22;47278;49.732;7.690;2022-11-30T09:01:22;7.10;99.90
61412;DHT22;47278;49.732;7.690;2022-11-30T09:03:49;7.10;99.90
61412;DHT22;47278;49.732;7.690;2022-11-30T09:06:17;7.10;99.90
61412;DHT22;47278;49.732;7.690;2022-11-30T09:08:44;7.10;99.90
61412;DHT22;47278;49.732;7.690;2022-11-30T09:11:12;7.00;99.90
61412;DHT22;47278;49.732;7.690;2022-11-30T09:13:38;7.10;99.90
61412;DHT22;47278;49.732;7.690;2022-11-30T09:16:04;7.10;99.90
61412;DHT22;47278;49.732;7.690;2022-11-30T09:18:30;7.10;99.90
61412;DHT22;47278;49.732;7.690;2022-11-30T09:20:59;7.20;99.90
61412;DHT22;47278;49.732;7.690;2022-11-30T09:23:26;7.30;99.90
61412;DHT22;47278;49.732;7.690;2022-11-30T09:25:58;7.40;99.90
61412;DHT22;47278;49.732;7.690;2022-11-30T09:28:24;7.50;99.90
61412;DHT22;47278;49.732;7.690;2022-11-30T09:30:50;7.60;99.90
61412;DHT22;47278;49.732;7.690;2022-11-30T09:33:16;7.70;99.90
61412;DHT22;47278;49.732;7.690;2022-11-30T09:35:42;7.90;99.90
61412;DHT22;47278;49.732;7.690;2022-11-30T09:38:08;9.80;99.90
61412;DHT22;47278;49.732;7.690;2022-11-30T09:40:37;7.90;99.90
61412;DHT22;47278;49.732;7.690;2022-11-30T09:45:47;7.90;99.90
61412;DHT22;47278;49.732;7.690;2022-11-30T09:48:17;7.70;99.90
61412;DHT22;47278;49.732;7.690;2022-11-30T09:50:45;5.10;99.90
61412;DHT22;47278;49.732;7.690;2022-11-30T09:56:31;7.70;99.90
61412;DHT22;47278;49.732;7.690;2022-11-30T09:59:06;7.80;99.90
61412;DHT22;47278;49.732;7.690;2022-11-30T10:01:36;7.70;99.90
61412;DHT22;47278;49.732;7.690;2022-11-30T10:04:02;7.80;99.90
61412;DHT22;47278;49.732;7.690;2022-11-30T10:07:03;7.60;99.90
61412;DHT22;47278;49.732;7.690;2022-11-30T10:17:21;7.60;99.90
61412;DHT22;47278;49.732;7.690;2022-11-30T10:19:52;7.70;99.90
61412;DHT22;47278;49.732;7.690;2022-11-30T10:29:57;7.90;99.90
61412;DHT22;47278;49.732;7.690;2022-11-30T10:32:27;7.90;99.90
61412;DHT22;47278;49.732;7.690;2022-11-30T10:34:54;7.80;99.90
61412;DHT22;47278;49.732;7.690;2022-11-30T10:37:25;7.90;99.90
61412;DHT22;47278;49.732;7.690;2022-11-30T10:40:02;7.90;99.90
61412;DHT22;47278;49.732;7.690;2022-11-30T10:42:40;7.90;99.90
61412;DHT22;47278;49.732;7.690;2022-11-30T10:45:10;7.90;99.90
61412;DHT22;47278;49.732;7.690;2022-11-30T10:47:38;7.90;99.90
61412;DHT22;47278;49.732;7.690;2022-11-30T10:50:06;7.90;99.90
61412;DHT22;47278;49.732;7.690;2022-11-30T10:52:37;8.00;99.90
61412;DHT22;47278;49.732;7.690;2022-11-30T10:55:10;8.00;99.90
61412;DHT22;47278;49.732;7.690;2022-11-30T10:57:36;8.00;99.90
61412;DHT22;47278;49.732;7.690;2022-11-30T11:00:03;8.10;99.90
61412;DHT22;47278;49.732;7.690;2022-11-30T11:05:15;8.10;99.90
61412;DHT22;47278;49.732;7.690;2022-11-30T11:10:35;8.20;99.90
61412;DHT22;47278;49.732;7.690;2022-11-30T11:13:01;8.30;99.90
61412;DHT22;47278;49.732;7.690;2022-11-30T11:15:35;8.40;99.90
61412;DHT22;47278;49.732;7.690;2022-11-30T11:18:22;8.50;99.90
61412;DHT22;47278;49.732;7.690;2022-11-30T11:20:48;8.50;99.90
61412;DHT22;47278;49.732;7.690;2022-11-30T11:23:28;8.60;99.90
61412;DHT22;47278;49.732;7.690;2022-11-30T11:25:54;8.60;99.90
61412;DHT22;47278;49.732;7.690;2022-11-30T11:28:22;8.60;99.90
61412;DHT22;47278;49.732;7.690;2022-11-30T11:30:52;8.60;99.90
61412;DHT22;47278;49.732;7.690;2022-11-30T11:33:22;8.80;99.90
61412;DHT22;47278;49.732;7.690;2022-11-30T11:35:49;8.90;99.90
61412;DHT22;47278;49.732;7.690;2022-11-30T11:38:22;8.90;99.90
61412;DHT22;47278;49.732;7.690;2022-11-30T11:40:52;8.90;99.90
61412;DHT22;47278;49.732;7.690;2022-11-30T11:43:18;8.90;99.90
61412;DHT22;47278;49.732;7.690;2022-11-30T11:45:49;8.80;99.90
61412;DHT22;47278;49.732;7.690;2022-11-30T11:51:02;8.80;99.90
61412;DHT22;47278;49.732;7.690;2022-11-30T11:56:08;8.90;99.90
61412;DHT22;47278;49.732;7.690;2022-11-30T11:58:46;8.90;99.90
61412;DHT22;47278;49.732;7.690;2022-11-30T12:04:14;9.10;99.90
61412;DHT22;47278;49.732;7.690;2022-11-30T12:06:44;9.10;99.90
61412;DHT22;47278;49.732;7.690;2022-11-30T12:09:30;9.10;99.90
61412;DHT22;47278;49.732;7.690;2022-11-30T12:11:58;9.10;99.90
61412;DHT22;47278;49.732;7.690;2022-11-30T12:14:24;9.00;99.90
61412;DHT22;47278;49.732;7.690;2022-11-30T12:19:22;8.90;99.90
61412;DHT22;47278;49.732;7.690;2022-11-30T12:24:46;8.80;99.90
61412;DHT22;47278;49.732;7.690;2022-11-30T12:29:47;8.80;99.90
61412;DHT22;47278;49.732;7.690;2022-11-30T12:40:35;9.00;99.90
61412;DHT22;47278;49.732;7.690;2022-11-30T12:43:17;9.10;99.90
61412;DHT22;47278;49.732;7.690;2022-11-30T12:45:46;9.10;99.90
61412;DHT22;47278;49.732;7.690;2022-11-30T12:56:00;9.10;99.90
61412;DHT22;47278;49.732;7.690;2022-11-30T13:06:30;8.90;99.90
61412;DHT22;47278;49.732;7.690;2022-11-30T13:08:59;8.90;99.90
61412;DHT22;47278;49.732;7.690;2022-11-30T13:11:37;8.90;99.90
61412;DHT22;47278;49.732;7.690;2022-11-30T13:14:05;8.80;99.90
61412;DHT22;47278;49.732;7.690;2022-11-30T13:16:33;8.80;99.90
61412;DHT22;47278;49.732;7.690;2022-11-30T13:21:52;8.80;99.90
61412;DHT22;47278;49.732;7.690;2022-11-30T13:24:27;8.70;99.90
61412;DHT22;47278;49.732;7.690;2022-11-30T13:27:00;8.70;99.90
61412;DHT22;47278;49.732;7.690;2022-11-30T13:32:13;8.60;99.90
61412;DHT22;47278;49.732;7.690;2022-11-30T13:34:40;8.50;99.90
61412;DHT22;47278;49.732;7.690;2022-11-30T13:37:12;10.30;99.90
61412;DHT22;47278;49.732;7.690;2022-11-30T13:39:45;8.50;99.90
61412;DHT22;47278;49.732;7.690;2022-11-30T13:42:14;8.60;99.90
61412;DHT22;47278;49.732;7.690;2022-11-30T13:44:43;8.50;99.90
61412;DHT22;47278;49.732;7.690;2022-11-30T13:47:17;8.50;99.90
61412;DHT22;47278;49.732;7.690;2022-11-30T13:49:43;8.40;99.90
61412;DHT22;47278;49.732;7.690;2022-11-30T13:52:12;8.50;99.90
61412;DHT22;47278;49.732;7.690;2022-11-30T13:59:51;8.70;99.90
61412;DHT22;47278;49.732;7.690;2022-11-30T14:07:36;8.80;99.90
61412;DHT22;47278;49.732;7.690;2022-11-30T14:10:02;8.80;99.90
61412;DHT22;47278;49.732;7.690;2022-11-30T14:15:01;8.70;99.90
61412;DHT22;47278;49.732;7.690;2022-11-30T14:17:33;8.70;99.90
61412;DHT22;47278;49.732;7.690;2022-11-30T14:20:04;8.70;99.90
61412;DHT22;47278;49.732;7.690;2022-11-30T14:22:32;8.70;99.90
61412;DHT22;47278;49.732;7.690;2022-11-30T14:24:58;8.70;99.90
61412;DHT22;47278;49.732;7.690;2022-11-30T14:27:26;8.70;99.90
61412;DHT22;47278;49.732;7.690;2022-11-30T14:29:54;8.70;99.90
61412;DHT22;47278;49.732;7.690;2022-11-30T14:32:27;8.70;99.90
61412;DHT22;47278;49.732;7.690;2022-11-30T14:35:27;8.70;99.90
61412;DHT22;47278;49.732;7.690;2022-11-30T14:37:54;8.70;99.90
61412;DHT22;47278;49.732;7.690;2022-11-30T14:40:21;8.70;99.90
61412;DHT22;47278;49.732;7.690;2022-11-30T14:42:51;8.70;99.90
61412;DHT22;47278;49.732;7.690;2022-11-30T14:45:22;8.60;99.90
61412;DHT22;47278;49.732;7.690;2022-11-30T14:47:51;8.60;99.90
61412;DHT22;47278;49.732;7.690;2022-11-30T14:50:24;8.60;99.90
61412;DHT22;47278;49.732;7.690;2022-11-30T14:52:56;8.60;99.90
61412;DHT22;47278;49.732;7.690;2022-11-30T15:00:20;8.50;99.90
61412;DHT22;47278;49.732;7.690;2022-11-30T15:02:46;8.50;99.90
61412;DHT22;47278;49.732;7.690;2022-11-30T15:05:13;8.50;99.90
61412;DHT22;47278;49.732;7.690;2022-11-30T15:07:40;8.40;99.90
61412;DHT22;47278;49.732;7.690;2022-11-30T15:10:08;8.40;99.90
61412;DHT22;47278;49.732;7.690;2022-11-30T15:12:35;10.50;99.90
61412;DHT22;47278;49.732;7.690;2022-11-30T15:17:27;8.30;99.90
61412;DHT22;47278;49.732;7.690;2022-11-30T15:19:52;8.30;99.90
61412;DHT22;47278;49.732;7.690;2022-11-30T15:22:20;8.30;99.90
61412;DHT22;47278;49.732;7.690;2022-11-30T15:24:45;8.20;99.90
61412;DHT22;47278;49.732;7.690;2022-11-30T15:27:12;8.20;99.90
61412;DHT22;47278;49.732;7.690;2022-11-30T15:29:42;8.30;99.90
61412;DHT22;47278;49.732;7.690;2022-11-30T15:32:15;8.20;99.90
61412;DHT22;47278;49.732;7.690;2022-11-30T15:34:46;8.20;99.90
61412;DHT22;47278;49.732;7.690;2022-11-30T15:37:11;8.20;99.90
61412;DHT22;47278;49.732;7.690;2022-11-30T15:39:37;8.20;99.90
61412;DHT22;47278;49.732;7.690;2022-11-30T15:42:05;8.20;99.90
61412;DHT22;47278;49.732;7.690;2022-11-30T15:47:00;8.00;99.90
61412;DHT22;47278;49.732;7.690;2022-11-30T15:49:30;8.00;99.90
61412;DHT22;47278;49.732;7.690;2022-11-30T15:52:14;8.00;99.90
61412;DHT22;47278;49.732;7.690;2022-11-30T15:54:41;8.00;99.90
61412;DHT22;47278;49.732;7.690;2022-11-30T15:57:07;7.90;99.90
61412;DHT22;47278;49.732;7.690;2022-11-30T15:59:32;7.90;99.90
61412;DHT22;47278;49.732;7.690;2022-11-30T16:01:59;7.80;99.90
61412;DHT22;47278;49.732;7.690;2022-11-30T16:07:15;7.80;99.90
61412;DHT22;47278;49.732;7.690;2022-11-30T16:09:41;7.80;99.90
61412;DHT22;47278;49.732;7.690;2022-11-30T16:12:07;7.80;99.90
61412;DHT22;47278;49.732;7.690;2022-11-30T16:14:40;7.80;99.90
61412;DHT22;47278;49.732;7.690;2022-11-30T16:17:08;7.70;99.90
61412;DHT22;47278;49.732;7.690;2022-11-30T16:19:34;7.70;99.90
61412;DHT22;47278;49.732;7.690;2022-11-30T16:22:00;7.70;99.90
61412;DHT22;47278;49.732;7.690;2022-11-30T16:24:25;7.70;99.90
61412;DHT22;47278;49.732;7.690;2022-11-30T16:26:51;7.70;99.90
61412;DHT22;47278;49.732;7.690;2022-11-30T16:29:17;7.60;99.90
61412;DHT22;47278;49.732;7.690;2022-11-30T16:31:42;7.50;99.90
61412;DHT22;47278;49.732;7.690;2022-11-30T16:34:09;7.50;99.90
61412;DHT22;47278;49.732;7.690;2022-11-30T16:36:35;7.70;99.90
61412;DHT22;47278;49.732;7.690;2022-11-30T16:39:01;7.40;99.90
61412;DHT22;47278;49.732;7.690;2022-11-30T16:41:26;7.40;99.90
61412;DHT22;47278;49.732;7.690;2022-11-30T16:43:53;7.40;99.90
61412;DHT22;47278;49.732;7.690;2022-11-30T16:46:20;7.40;99.90
61412;DHT22;47278;49.732;7.690;2022-11-30T16:48:46;7.40;99.90
61412;DHT22;47278;49.732;7.690;2022-11-30T16:51:16;7.30;99.90
61412;DHT22;47278;49.732;7.690;2022-11-30T16:53:42;7.30;99.90
61412;DHT22;47278;49.732;7.690;2022-11-30T16:56:09;7.30;99.90
61412;DHT22;47278;49.732;7.690;2022-11-30T16:58:34;7.30;99.90
61412;DHT22;47278;49.732;7.690;2022-11-30T17:01:00;7.20;99.90
61412;DHT22;47278;49.732;7.690;2022-11-30T17:03:27;7.20;99.90
61412;DHT22;47278;49.732;7.690;2022-11-30T17:05:53;7.20;99.90
61412;DHT22;47278;49.732;7.690;2022-11-30T17:08:19;7.20;99.90
61412;DHT22;47278;49.732;7.690;2022-11-30T17:10:44;6.30;99.90
61412;DHT22;47278;49.732;7.690;2022-11-30T17:13:14;7.30;99.90
61412;DHT22;47278;49.732;7.690;2022-11-30T17:15:40;7.40;99.90
61412;DHT22;47278;49.732;7.690;2022-11-30T17:18:05;7.50;99.90
61412;DHT22;47278;49.732;7.690;2022-11-30T17:20:31;7.50;99.90
61412;DHT22;47278;49.732;7.690;2022-11-30T17:22:57;7.50;99.90
61412;DHT22;47278;49.732;7.690;2022-11-30T17:25:22;7.50;99.90
61412;DHT22;47278;49.732;7.690;2022-11-30T17:27:48;7.50;99.90
61412;DHT22;47278;49.732;7.690;2022-11-30T17:30:16;7.50;99.90
61412;DHT22;47278;49.732;7.690;2022-11-30T17:32:42;7.50;99.90
61412;DHT22;47278;49.732;7.690;2022-11-30T17:35:08;7.50;99.90
61412;DHT22;47278;49.732;7.690;2022-11-30T17:37:34;7.50;99.90
61412;DHT22;47278;49.732;7.690;2022-11-30T17:39:59;7.50;99.90
61412;DHT22;47278;49.732;7.690;2022-11-30T17:42:25;8.40;99.90
61412;DHT22;47278;49.732;7.690;2022-11-30T17:44:51;7.50;99.90
61412;DHT22;47278;49.732;7.690;2022-11-30T17:47:17;7.50;99.90